Oliver, Canada
Current Conditions -  °F | °C
As of 10:00 PM on Tuesday 25 Nov 2014 (Local Time) from CYYF Reporting Station
Light Snow Light Snow  
Wind Chill: 32°   Ceiling: 300
Heat Index: 32°   Visibility: 1mi
Dew Point: 32°   Wind: 2mph
Humidity: 100%   Direction: 190°S
Pressure: 30.23"   Gusts: NA
Location:  49.18°N, 119.55°W
Report Text: CYYF 260600Z 19002KT 1SM -SN BKN003 OVC010 00/M00 A3023 RMK SF7SF1 SLP249
Loading
Personal Weather Stations






























Interactive Weather Map New forecast layout! Learn more

10-Day Weather Forecast

Advertisements
Track Severe Weather on mobile